Meadville, PA (16335)

8:36 AM EDT on July 23, 2016 (GMT -0400)
Gilmore St | | Change Station

Elev 1365 ft 41.65 °N, 80.14 °W | Updated 23 seconds ago

Clear
Clear
77.2 °F
Feels Like 79 °F
N
1.6
Wind Variable Wind from West
Gusts 2.9 mph

Today
High -- | Low -- °F
--% Chance of Precip.
Yesterday
High -- | Low -- °F
Precip. -- in
Pressure 29.98 in
Visibility 9.0 miles
Clouds Clear
Heat Index 79 °F
Dew Point 70 °F
Humidity 80%
Rainfall 0.00 in
Snow Depth Not available.
6:06 AM 8:46 PM
Waning Gibbous, 85% visible
METAR KGKJ 231153Z AUTO 23003KT 9SM CLR 22/21 A3001 RMK AO2 SLP150 7//// T02220206 10222 20206 53003 TSNO
Pressure 29.98 in
Visibility 9.0 miles
Clouds Clear
Heat Index 79 °F
Dew Point 70 °F
Humidity 80%
Rainfall 0.00 in
Snow Depth Not available.
6:06 AM 8:46 PM
Waning Gibbous, 85% visible
METAR KGKJ 231153Z AUTO 23003KT 9SM CLR 22/21 A3001 RMK AO2 SLP150 7//// T02220206 10222 20206 53003 TSNO

10-Day Weather Forecast

Almanac

Astronomy

Jul. 23, 2016 Rise Set
Actual Time
Civil Twilight
Nautical Twilight
Astronomical Twilight
Moon
Length of Visible Light
Length of Day
Tomorrow will be .
, % of the Moon is Illuminated

Today's Extremes

State Highs State Lows

Community

WunderPhotos

Upload Photos

1,926,815 photos uploaded!

WunderBlog® & News

Nearby

Air Quality

  Air Quality AQ Index Pollutant
Not available.

Snow Depth

Station Depth Elevation

Earthquake Activity

City Distance Mag. Time & Date
Minimum magnitude displayed is 2.5.

Coastal Water Temperatures

Place Temperature

Stations

Nearby Weather Stations

Station Location Temp. Windchill Dew Point Humidity Wind Precip. Elev Updated Type
                   

Watches & Warnings

There are currently no watches in effect.